createdAt,value
2022-10-26T00:04:43.771Z,8.6
2022-10-26T00:09:44.271Z,8.6
2022-10-26T00:14:43.778Z,8.7
2022-10-26T00:24:44.321Z,9.8
2022-10-26T00:29:44.328Z,9.8
2022-10-26T00:34:45.604Z,10.1
2022-10-26T00:39:44.129Z,10.1
2022-10-26T00:44:44.155Z,10.8
2022-10-26T00:49:43.774Z,11.3
2022-10-26T00:54:43.869Z,10.8
2022-10-26T00:59:43.787Z,10.8
2022-10-26T01:04:43.773Z,9.8
2022-10-26T01:09:56.634Z,9.4
2022-10-26T01:14:43.767Z,9.4
2022-10-26T01:19:43.783Z,8.5
2022-10-26T01:24:43.808Z,8.5
2022-10-26T01:29:43.784Z,9.4
2022-10-26T01:34:43.799Z,8.5
2022-10-26T01:39:43.823Z,8.5
2022-10-26T01:44:43.815Z,7.2
2022-10-26T01:49:43.809Z,9.2
2022-10-26T01:54:43.851Z,9.2
2022-10-26T01:59:43.779Z,8.1
2022-10-26T02:04:43.802Z,7.5
2022-10-26T02:10:13.166Z,8.1
2022-10-26T02:14:43.848Z,8.1
2022-10-26T02:19:43.733Z,8.1
2022-10-26T02:24:43.809Z,8.1
2022-10-26T02:29:43.804Z,8.3
2022-10-26T02:34:43.818Z,8.3
2022-10-26T02:39:43.816Z,9
2022-10-26T02:44:43.773Z,9
2022-10-26T02:49:43.779Z,9
2022-10-26T02:54:43.836Z,9
2022-10-26T02:59:43.778Z,9.2
2022-10-26T03:04:43.867Z,9.4
2022-10-26T03:09:51.293Z,9.6
2022-10-26T03:14:43.804Z,9.4
2022-10-26T03:19:43.817Z,9.2
2022-10-26T03:24:44.061Z,9.2
2022-10-26T03:29:43.968Z,9.2
2022-10-26T03:34:43.920Z,9.2
2022-10-26T03:39:43.825Z,9.2
2022-10-26T03:44:43.884Z,9.2
2022-10-26T03:49:43.965Z,10
2022-10-26T03:54:43.823Z,10.5
2022-10-26T03:59:43.787Z,10.7
2022-10-26T04:04:43.907Z,10.7
2022-10-26T04:10:02.206Z,10.5
2022-10-26T04:14:43.887Z,10.7
2022-10-26T04:19:43.830Z,13.7
2022-10-26T04:24:43.817Z,13.3
2022-10-26T04:29:43.786Z,11.3
2022-10-26T04:34:44.904Z,11.3
2022-10-26T04:39:43.827Z,13.3
2022-10-26T04:54:44.029Z,9.7
2022-10-26T04:59:43.819Z,10.8
2022-10-26T05:04:43.798Z,9.7
2022-10-26T05:09:43.872Z,9.65
2022-10-26T05:14:43.837Z,9.7
2022-10-26T05:19:43.899Z,10.15
2022-10-26T05:24:43.862Z,10.6
2022-10-26T05:29:43.878Z,11.4
2022-10-26T05:34:43.822Z,10.6
2022-10-26T05:39:43.858Z,10.6
2022-10-26T05:44:43.869Z,11.4
2022-10-26T05:49:43.788Z,11.4
2022-10-26T05:54:43.968Z,11.4
2022-10-26T05:59:43.836Z,10.5
2022-10-26T06:04:43.937Z,10
2022-10-26T06:09:43.945Z,10.5
2022-10-26T06:14:43.921Z,10.5
2022-10-26T06:19:43.945Z,10.5
2022-10-26T06:24:43.908Z,10
2022-10-26T06:29:43.858Z,10
2022-10-26T06:34:43.849Z,11.3
2022-10-26T06:39:43.889Z,11.4
2022-10-26T06:44:43.921Z,12.5
2022-10-26T06:49:43.857Z,12.5
2022-10-26T06:54:44.025Z,12.6
2022-10-26T06:59:43.962Z,12.6
2022-10-26T07:04:43.933Z,12.6
2022-10-26T07:09:43.916Z,12.3
2022-10-26T07:14:43.942Z,9.7
2022-10-26T07:19:44.008Z,9.5
2022-10-26T07:24:43.933Z,9.5
2022-10-26T07:29:43.909Z,9.3
2022-10-26T07:34:43.915Z,9.3
2022-10-26T07:39:43.953Z,9
2022-10-26T07:44:43.942Z,9.3
2022-10-26T07:49:43.936Z,9
2022-10-26T07:54:43.926Z,8.1
2022-10-26T07:59:43.867Z,9
2022-10-26T08:04:43.903Z,8.1
2022-10-26T08:09:43.906Z,8.1
2022-10-26T08:20:16.038Z,8.1
2022-10-26T08:24:43.860Z,7.45
2022-10-26T08:29:43.833Z,8.1
2022-10-26T08:34:43.830Z,8
2022-10-26T08:39:43.926Z,7.9
2022-10-26T08:44:43.859Z,8
2022-10-26T08:49:43.841Z,8.1
2022-10-26T08:54:43.821Z,8.6
2022-10-26T08:59:43.865Z,8.6
2022-10-26T09:04:43.859Z,8.6
2022-10-26T09:09:43.892Z,9
2022-10-26T09:14:43.867Z,9.2
2022-10-26T09:19:43.926Z,9.2
2022-10-26T09:24:43.854Z,10
2022-10-26T09:29:43.918Z,9.2
2022-10-26T09:34:44.000Z,8.6
2022-10-26T09:39:43.905Z,10
2022-10-26T09:44:43.855Z,9.2
2022-10-26T09:49:43.923Z,8.1
2022-10-26T09:54:43.880Z,9.2
2022-10-26T09:59:43.921Z,9.2
2022-10-26T10:04:43.895Z,9.2
2022-10-26T10:09:43.921Z,9.7
2022-10-26T10:14:43.875Z,9.7
2022-10-26T10:19:44.039Z,10.5
2022-10-26T10:24:43.864Z,10.5
2022-10-26T10:29:43.933Z,10.1
2022-10-26T10:34:43.878Z,10.1
2022-10-26T10:39:43.890Z,9.7
2022-10-26T10:44:43.916Z,8.3
2022-10-26T10:49:43.896Z,7.7
2022-10-26T10:54:43.910Z,7.7
2022-10-26T10:59:43.886Z,7.7
2022-10-26T11:04:43.882Z,6.4
2022-10-26T11:09:43.872Z,7.7
2022-10-26T11:14:48.849Z,6.4
2022-10-26T11:19:43.969Z,8.3
2022-10-26T11:24:43.873Z,8.5
2022-10-26T11:29:48.328Z,9.3
2022-10-26T11:34:43.925Z,9.1
2022-10-26T11:39:44.026Z,9.1
2022-10-26T11:44:43.894Z,9.1
2022-10-26T11:49:43.915Z,9.6
2022-10-26T11:54:44.056Z,10.4
2022-10-26T11:59:43.907Z,9.6
2022-10-26T12:04:44.053Z,9.3
2022-10-26T12:09:43.959Z,9.6
2022-10-26T12:14:43.867Z,9.6
2022-10-26T12:19:44.003Z,9.6
2022-10-26T12:24:43.917Z,11.1
2022-10-26T12:29:43.891Z,11.1
2022-10-26T12:34:43.953Z,11.1
2022-10-26T12:39:43.956Z,11.1
2022-10-26T12:44:43.981Z,9.6
2022-10-26T12:49:43.897Z,11.1
2022-10-26T12:54:43.973Z,9.6
2022-10-26T12:59:43.924Z,9.5
2022-10-26T13:04:43.977Z,9.5
2022-10-26T13:09:43.884Z,9.6
2022-10-26T13:14:43.978Z,9.9
2022-10-26T13:19:43.941Z,9.9
2022-10-26T13:24:43.927Z,9.9
2022-10-26T13:29:43.919Z,9.9
2022-10-26T13:34:43.894Z,9.9
2022-10-26T13:39:43.907Z,9.9
2022-10-26T13:44:43.920Z,10.7
2022-10-26T13:49:44.014Z,12.8
2022-10-26T13:54:43.902Z,12.8
2022-10-26T13:59:43.972Z,12.8
2022-10-26T14:04:44.034Z,13.3
2022-10-26T14:09:43.977Z,13.3
2022-10-26T14:14:43.909Z,9
2022-10-26T14:19:44.866Z,9
2022-10-26T14:24:47.690Z,9
2022-10-26T14:29:54.135Z,9
2022-10-26T14:34:43.874Z,10.3
2022-10-26T14:39:43.923Z,8.6
2022-10-26T14:44:44.045Z,10.3
2022-10-26T14:49:43.975Z,10.3
2022-10-26T14:54:43.944Z,9.5
2022-10-26T14:59:43.930Z,9.5
2022-10-26T15:04:43.940Z,9.8
2022-10-26T15:09:43.931Z,9.8
2022-10-26T15:14:44.105Z,9.8
2022-10-26T15:19:44.117Z,9.8
2022-10-26T15:24:44.063Z,11.1
2022-10-26T15:29:43.928Z,12.2
2022-10-26T15:34:43.945Z,12.3
2022-10-26T15:39:43.952Z,14.6
2022-10-26T15:44:44.026Z,16.2
2022-10-26T15:49:43.911Z,16.2
2022-10-26T15:54:44.054Z,16.4
2022-10-26T15:59:43.929Z,16.4
2022-10-26T16:04:44.034Z,16.2
2022-10-26T16:09:43.960Z,14.6
2022-10-26T16:15:04.059Z,14.6
2022-10-26T16:19:44.044Z,14.6
2022-10-26T16:24:43.968Z,14.5
2022-10-26T16:29:43.977Z,13.4
2022-10-26T16:34:43.985Z,13.4
2022-10-26T16:39:43.955Z,12.8
2022-10-26T16:44:43.969Z,12.8
2022-10-26T16:49:43.966Z,12.8
2022-10-26T16:54:43.977Z,12.8
2022-10-26T16:59:43.909Z,12.8
2022-10-26T17:04:43.991Z,14.2
2022-10-26T17:09:43.963Z,14.2
2022-10-26T17:14:43.974Z,14.3
2022-10-26T17:19:44.084Z,14.6
2022-10-26T17:24:43.942Z,16.6
2022-10-26T17:29:44.107Z,17.4
2022-10-26T17:34:44.080Z,17.4
2022-10-26T17:39:43.964Z,17.4
2022-10-26T17:44:43.955Z,17.4
2022-10-26T17:49:44.105Z,17.4
2022-10-26T17:54:43.980Z,17.4
2022-10-26T17:59:43.978Z,17.8
2022-10-26T18:04:43.973Z,17.8
2022-10-26T18:09:43.940Z,17.8
2022-10-26T18:14:44.001Z,17.1
2022-10-26T18:19:44.041Z,15.3
2022-10-26T18:24:43.974Z,15
2022-10-26T18:29:43.955Z,14.7
2022-10-26T18:34:43.964Z,13.9
2022-10-26T18:39:43.988Z,13.8
2022-10-26T18:44:44.470Z,13.3
2022-10-26T18:49:44.083Z,13.3
2022-10-26T18:54:44.044Z,13.3
2022-10-26T18:59:43.948Z,13.8
2022-10-26T19:04:43.977Z,14.1
2022-10-26T19:09:44.136Z,16.7
2022-10-26T19:14:44.073Z,18.5
2022-10-26T19:19:44.137Z,18.5
2022-10-26T19:24:44.007Z,18.5
2022-10-26T19:29:44.008Z,18.6
2022-10-26T19:34:44.025Z,18.5
2022-10-26T19:39:43.980Z,18.6
2022-10-26T19:44:43.975Z,18.6
2022-10-26T19:49:44.001Z,18.2
2022-10-26T19:54:44.028Z,19.2
2022-10-26T19:59:45.116Z,19.2
2022-10-26T20:04:44.000Z,19.3
2022-10-26T20:09:44.037Z,19.4
2022-10-26T20:14:43.970Z,20.2
2022-10-26T20:19:44.079Z,22.2
2022-10-26T20:24:44.036Z,24.8
2022-10-26T20:29:44.878Z,25.1
2022-10-26T20:34:47.157Z,25.1
2022-10-26T20:39:44.162Z,24.8
2022-10-26T20:44:44.015Z,24.8
2022-10-26T20:49:43.996Z,22.7
2022-10-26T20:54:44.163Z,20.2
2022-10-26T20:59:44.006Z,19.6
2022-10-26T21:04:44.165Z,18.6
2022-10-26T21:09:44.043Z,18.6
2022-10-26T21:14:44.032Z,18.6
2022-10-26T21:19:44.184Z,17.7
2022-10-26T21:24:44.108Z,17.7
2022-10-26T21:29:44.009Z,17.7
2022-10-26T21:34:44.065Z,17.7
2022-10-26T21:39:44.014Z,19
2022-10-26T21:44:44.084Z,17.3
2022-10-26T21:49:44.073Z,17.3
2022-10-26T21:54:44.061Z,17.3
2022-10-26T21:59:44.067Z,17.3
2022-10-26T22:04:43.995Z,17.3
2022-10-26T22:10:00.524Z,16.9
2022-10-26T22:19:44.127Z,15.2
2022-10-26T22:24:46.154Z,15.2
2022-10-26T22:29:44.028Z,15.2
2022-10-26T22:34:44.057Z,15.2
2022-10-26T22:39:44.069Z,19.5
2022-10-26T22:44:44.025Z,19.8
2022-10-26T22:49:44.021Z,19.8
2022-10-26T22:54:44.080Z,19.8
2022-10-26T22:59:44.068Z,19.5
2022-10-26T23:04:44.078Z,17.9
2022-10-26T23:09:44.033Z,16.6
2022-10-26T23:14:44.107Z,16.6
2022-10-26T23:19:44.165Z,16.6
2022-10-26T23:24:44.135Z,17
2022-10-26T23:29:45.239Z,17
2022-10-26T23:34:44.168Z,18.8
2022-10-26T23:39:44.188Z,18.8
2022-10-26T23:44:44.085Z,19
2022-10-26T23:49:44.082Z,19.7
2022-10-26T23:54:44.193Z,19.7
2022-10-26T23:59:44.020Z,19
